Time;durP1;ratioP1;P1;durP2;ratioP2;P2;SDS_P1;SDS_P2;PMS_P1;PMS_P2;Temp;Humidity;BMP_temperature;BMP_pressure;BME280_temperature;BME280_humidity;BME280_pressure;Samples;Min_cycle;Max_cycle;Signal;HPM_P1;HPM_P2
2023/12/15 00:00:30;;;;;;;10.30;5.88;;;;;;;4.93;79.24;99692.91;5042209;27;102602;-75
2023/12/15 00:03:00;;;;;;;8.27;5.75;;;;;;;4.97;78.78;99696.16;5019913;27;102836;-76
2023/12/15 00:05:28;;;;;;;8.55;5.35;;;;;;;4.97;78.52;99690.91;5040953;27;103205;-75
2023/12/15 00:07:56;;;;;;;9.93;5.90;;;;;;;4.98;78.31;99697.84;5037642;27;103331;-75
2023/12/15 00:10:24;;;;;;;11.10;6.10;;;;;;;4.92;78.74;99693.00;5036532;27;102708;-75
2023/12/15 00:12:54;;;;;;;8.60;5.35;;;;;;;4.94;78.65;99705.09;5043252;27;104009;-75
2023/12/15 00:15:22;;;;;;;10.32;6.00;;;;;;;4.98;78.63;99708.34;5040649;27;104343;-76
2023/12/15 00:17:50;;;;;;;12.60;6.28;;;;;;;4.96;78.69;99707.59;5017993;27;104221;-75
2023/12/15 00:20:19;;;;;;;8.25;5.45;;;;;;;4.89;78.93;99717.69;5038060;27;103634;-68
2023/12/15 00:22:50;;;;;;;9.20;5.60;;;;;;;4.96;79.08;99712.84;5025216;27;104203;-68
2023/12/15 00:25:19;;;;;;;8.32;4.70;;;;;;;4.93;78.79;99723.56;5018384;27;104081;-68
2023/12/15 00:27:48;;;;;;;9.00;5.18;;;;;;;4.87;79.11;99724.00;5013134;27;104128;-69
2023/12/15 00:30:18;;;;;;;10.23;5.90;;;;;;;4.95;78.99;99727.78;5036675;27;102556;-70
2023/12/15 00:32:49;;;;;;;9.00;6.13;;;;;;;4.90;79.31;99729.03;5038083;27;103238;-68
2023/12/15 00:35:17;;;;;;;10.80;6.35;;;;;;;4.73;79.22;99738.91;5032964;27;104101;-69
2023/12/15 00:37:45;;;;;;;10.18;6.05;;;;;;;4.74;78.68;99743.22;5019847;27;103941;-69
2023/12/15 00:40:15;;;;;;;9.65;6.43;;;;;;;4.52;79.01;99742.97;5024311;27;102700;-68
2023/12/15 00:42:46;;;;;;;11.23;6.60;;;;;;;4.63;78.75;99748.34;5041106;27;102732;-69
2023/12/15 00:45:14;;;;;;;9.07;5.28;;;;;;;4.66;78.87;99745.50;5042487;27;103204;-68
2023/12/15 00:47:46;;;;;;;10.20;6.05;;;;;;;4.66;78.95;99745.50;5019854;27;104809;-69
2023/12/15 00:50:14;;;;;;;10.95;5.53;;;;;;;4.70;78.81;99749.59;5036564;27;102637;-70
2023/12/15 00:52:43;;;;;;;10.90;6.15;;;;;;;4.51;79.28;99746.53;5017845;27;103800;-69
2023/12/15 00:55:11;;;;;;;10.52;7.45;;;;;;;4.59;78.38;99758.22;5012032;27;104278;-69
2023/12/15 00:57:39;;;;;;;8.25;5.32;;;;;;;4.60;78.77;99761.69;5043045;27;102982;-68
2023/12/15 01:00:09;;;;;;;11.75;7.03;;;;;;;4.62;78.76;99765.03;5031879;27;102630;-68
2023/12/15 01:02:37;;;;;;;9.82;6.40;;;;;;;4.65;78.35;99767.44;5039460;27;104318;-69
2023/12/15 01:05:08;;;;;;;9.80;5.97;;;;;;;4.64;78.47;99768.41;5038886;27;103168;-69
2023/12/15 01:07:36;;;;;;;8.27;5.28;;;;;;;4.61;78.65;99771.22;5034283;27;103322;-69
2023/12/15 01:10:05;;;;;;;8.70;5.97;;;;;;;4.67;78.21;99768.19;5038152;27;102646;-68
2023/12/15 01:12:34;;;;;;;8.88;6.00;;;;;;;4.67;78.44;99773.44;5019398;27;102764;-69
2023/12/15 01:15:02;;;;;;;9.43;5.18;;;;;;;4.70;77.94;99775.84;5038377;27;104412;-69
2023/12/15 01:17:30;;;;;;;9.90;6.10;;;;;;;4.63;78.30;99782.47;5018407;27;104238;-69
2023/12/15 01:19:59;;;;;;;11.70;6.40;;;;;;;4.70;78.60;99793.38;5039469;27;102925;-70
2023/12/15 01:22:29;;;;;;;9.32;5.90;;;;;;;4.69;78.53;99802.19;5038409;27;104218;-69
2023/12/15 01:24:57;;;;;;;8.75;5.57;;;;;;;4.68;78.30;99801.38;5013201;27;103986;-69
2023/12/15 01:27:25;;;;;;;8.82;5.40;;;;;;;4.66;78.02;99805.88;5041484;27;103160;-69
2023/12/15 01:29:54;;;;;;;11.32;6.30;;;;;;;4.61;78.47;99810.59;5020077;27;102674;-69
2023/12/15 01:32:24;;;;;;;11.27;6.72;;;;;;;4.67;78.21;99812.81;5022511;27;102866;-69
2023/12/15 01:34:53;;;;;;;13.75;8.00;;;;;;;4.62;77.66;99823.63;5018371;27;104086;-69
2023/12/15 01:37:23;;;;;;;8.52;5.35;;;;;;;4.67;78.25;99825.94;5023035;27;104260;-68
2023/12/15 01:39:53;;;;;;;10.98;7.00;;;;;;;4.68;78.23;99832.88;5036633;27;102674;-69
2023/12/15 01:42:21;;;;;;;11.48;6.13;;;;;;;4.66;78.55;99834.72;5031848;27;104021;-70
2023/12/15 01:44:49;;;;;;;9.85;6.28;;;;;;;4.68;78.42;99827.63;5040551;27;104208;-69
2023/12/15 01:47:18;;;;;;;8.77;5.70;;;;;;;4.71;78.26;99845.78;5032980;27;103212;-69
2023/12/15 01:49:47;;;;;;;9.20;5.60;;;;;;;4.68;78.38;99838.13;5018150;27;102616;-69
2023/12/15 01:52:16;;;;;;;10.23;6.22;;;;;;;4.62;79.05;99849.00;5039200;27;104244;-68
2023/12/15 01:54:47;;;;;;;10.90;6.88;;;;;;;4.64;78.62;99842.72;5033286;27;103191;-68
2023/12/15 01:57:17;;;;;;;13.88;8.13;;;;;;;4.66;78.33;99842.59;5041138;27;103320;-69
2023/12/15 01:59:46;;;;;;;10.30;6.03;;;;;;;4.61;78.90;99842.06;5044767;27;103078;-69
2023/12/15 02:02:15;;;;;;;9.82;6.00;;;;;;;4.56;78.42;99842.38;5014997;27;104332;-68
2023/12/15 02:04:44;;;;;;;11.35;7.13;;;;;;;4.60;78.60;99848.28;5034486;27;104286;-69
2023/12/15 02:07:15;;;;;;;8.32;5.10;;;;;;;4.67;78.76;99852.16;5011013;27;103948;-69
2023/12/15 02:09:43;;;;;;;7.60;5.07;;;;;;;4.73;78.38;99851.78;5019048;27;102742;-69
2023/12/15 02:12:11;;;;;;;11.98;7.40;;;;;;;4.75;78.19;99849.88;5030331;27;104023;-69
2023/12/15 02:14:44;;;;;;;12.52;7.88;;;;;;;4.67;77.71;99851.34;5037474;27;104205;-69
2023/12/15 02:17:13;;;;;;;10.50;6.43;;;;;;;4.68;78.49;99859.09;5022954;27;104478;-69
2023/12/15 02:19:41;;;;;;;9.90;6.00;;;;;;;4.65;78.09;99854.03;5036969;27;102605;-68
2023/12/15 02:22:10;;;;;;;9.82;5.60;;;;;;;4.64;78.25;99852.38;5033796;27;102604;-69
2023/12/15 02:24:40;;;;;;;9.15;4.93;;;;;;;4.64;78.09;99855.84;5025729;27;103414;-69
2023/12/15 02:27:08;;;;;;;7.47;4.60;;;;;;;4.60;78.12;99859.59;5038730;27;103262;-68
2023/12/15 02:29:38;;;;;;;7.68;4.60;;;;;;;4.53;77.87;99854.88;5038266;27;102726;-69
2023/12/15 02:32:07;;;;;;;8.93;5.63;;;;;;;4.44;78.07;99864.16;5018067;27;103997;-69
2023/12/15 02:34:37;;;;;;;9.75;5.03;;;;;;;4.36;78.02;99862.03;5015160;27;104196;-69
2023/12/15 02:37:08;;;;;;;8.02;4.78;;;;;;;4.40;78.27;99868.78;5036342;27;104127;-68
2023/12/15 02:39:40;;;;;;;7.13;4.70;;;;;;;4.46;78.66;99871.00;5016087;27;102715;-69
2023/12/15 02:42:10;;;;;;;6.43;3.92;;;;;;;4.43;78.50;99860.72;5033635;27;103948;-69
2023/12/15 02:44:42;;;;;;;7.97;4.68;;;;;;;4.40;78.34;99868.78;5036479;27;103088;-69
2023/12/15 02:47:10;;;;;;;9.93;7.25;;;;;;;4.36;77.37;99880.41;5026891;27;103014;-73
2023/12/15 02:49:39;;;;;;;10.00;6.50;;;;;;;4.36;77.92;99880.41;5035196;27;103294;-70
2023/12/15 02:52:08;;;;;;;8.70;5.10;;;;;;;4.31;78.25;99887.75;5031217;27;104061;-69
2023/12/15 02:54:36;;;;;;;10.35;5.60;;;;;;;4.39;78.31;99885.47;5034403;27;104109;-69
2023/12/15 02:57:06;;;;;;;8.88;5.30;;;;;;;4.42;78.65;99890.50;5039673;27;103419;-69
2023/12/15 02:59:34;;;;;;;8.90;5.18;;;;;;;4.46;78.45;99894.59;5035181;27;102708;-69
2023/12/15 03:02:02;;;;;;;10.70;6.72;;;;;;;4.40;78.16;99886.31;5025932;27;104215;-69
2023/12/15 03:04:30;;;;;;;8.77;5.80;;;;;;;4.35;78.45;99893.63;5018660;27;104462;-69
2023/12/15 03:06:59;;;;;;;11.40;6.70;;;;;;;4.37;78.43;99902.25;5031824;27;103802;-69
2023/12/15 03:09:27;;;;;;;12.02;7.80;;;;;;;4.38;78.20;99909.19;5036368;27;103001;-69
2023/12/15 03:11:56;;;;;;;10.23;6.68;;;;;;;4.37;78.76;99908.31;5015135;27;102722;-68
2023/12/15 03:14:25;;;;;;;11.18;7.43;;;;;;;4.35;78.64;99912.84;5014410;27;104343;-68
2023/12/15 03:16:53;;;;;;;11.55;7.25;;;;;;;4.26;78.86;99916.88;5032170;27;105130;-69
2023/12/15 03:19:22;;;;;;;9.35;5.72;;;;;;;4.24;78.96;99918.75;5015547;27;102653;-68
2023/12/15 03:21:50;;;;;;;14.95;7.38;;;;;;;4.26;79.14;99918.69;5042991;27;102748;-69
2023/12/15 03:24:18;;;;;;;9.73;6.47;;;;;;;4.30;79.24;99928.03;5033595;27;104104;-70
2023/12/15 03:26:48;;;;;;;10.80;5.60;;;;;;;4.28;79.28;99929.91;5026916;27;104791;-69
2023/12/15 03:29:16;;;;;;;10.68;6.30;;;;;;;4.21;79.28;99923.38;5022967;27;102739;-69
2023/12/15 03:31:46;;;;;;;8.88;5.47;;;;;;;4.29;78.74;99923.72;5031815;27;102678;-68
2023/12/15 03:34:14;;;;;;;8.75;5.47;;;;;;;4.31;78.95;99940.22;5014310;27;104181;-69
2023/12/15 03:36:43;;;;;;;7.10;4.85;;;;;;;4.28;79.33;99935.16;5024580;27;103188;-68
2023/12/15 03:39:12;;;;;;;9.13;5.22;;;;;;;4.35;78.83;99933.81;5032387;27;102777;-69
2023/12/15 03:41:40;;;;;;;9.25;5.50;;;;;;;4.36;78.43;99935.50;5033363;27;104606;-69
2023/12/15 03:44:08;;;;;;;10.23;6.05;;;;;;;4.35;78.95;99939.06;5015008;27;104191;-69
2023/12/15 03:46:36;;;;;;;8.23;5.25;;;;;;;4.38;78.93;99944.13;5037838;27;104254;-69
2023/12/15 03:49:06;;;;;;;10.63;6.18;;;;;;;4.43;79.10;99949.09;5038109;27;102653;-69
2023/12/15 03:51:35;;;;;;;8.73;5.90;;;;;;;4.41;78.58;99951.78;5012498;27;102717;-68
2023/12/15 03:54:03;;;;;;;8.77;5.90;;;;;;;4.42;78.64;99953.47;5032298;27;103035;-69
2023/12/15 03:56:31;;;;;;;8.93;5.97;;;;;;;4.40;78.75;99955.38;5027905;27;103245;-68
2023/12/15 03:59:00;;;;;;;9.77;6.38;;;;;;;4.43;78.64;99954.31;5014828;27;102645;-68
2023/12/15 04:01:29;;;;;;;9.80;5.65;;;;;;;4.41;78.90;99961.44;5037856;27;102913;-69
2023/12/15 04:03:58;;;;;;;10.70;6.47;;;;;;;4.38;79.02;99957.22;5037345;27;103224;-69
2023/12/15 04:06:28;;;;;;;8.27;4.80;;;;;;;4.38;79.28;99954.59;5038999;27;103356;-68
2023/12/15 04:08:57;;;;;;;9.48;5.43;;;;;;;4.42;79.34;99957.88;5038204;27;103140;-71
2023/12/15 04:11:30;;;;;;;6.82;4.50;;;;;;;4.45;78.89;99962.94;5033270;27;104433;-70
2023/12/15 04:13:58;;;;;;;8.25;5.07;;;;;;;4.48;78.93;99966.19;5018365;27;104424;-71
2023/12/15 04:16:27;;;;;;;7.95;4.30;;;;;;;4.50;78.90;99976.59;5026832;27;103255;-71
2023/12/15 04:18:55;;;;;;;8.23;5.35;;;;;;;4.53;78.63;99972.94;5009618;27;102683;-71
2023/12/15 04:21:23;;;;;;;7.90;4.93;;;;;;;4.50;78.44;99975.75;5020931;27;103920;-72
2023/12/15 04:23:52;;;;;;;7.40;4.80;;;;;;;4.51;78.71;99986.16;5040663;27;103403;-72
2023/12/15 04:26:20;;;;;;;10.38;6.95;;;;;;;4.53;79.12;99986.06;5035812;27;103176;-72
2023/12/15 04:28:48;;;;;;;10.07;6.22;;;;;;;4.49;78.56;99985.41;5020945;27;102688;-72
2023/12/15 04:31:18;;;;;;;7.82;4.70;;;;;;;4.51;79.31;99993.16;5040809;27;102724;-71
2023/12/15 04:33:47;;;;;;;8.63;5.78;;;;;;;4.51;78.84;99999.28;5039136;27;103932;-71
2023/12/15 04:36:19;;;;;;;8.90;5.57;;;;;;;4.53;78.69;99996.53;5019394;27;103404;-72
2023/12/15 04:38:47;;;;;;;8.32;5.57;;;;;;;4.52;78.99;100000.97;5036469;27;102651;-71
2023/12/15 04:41:22;;;;;;;11.48;6.90;;;;;;;4.54;77.91;100006.09;5035686;27;104399;-72
2023/12/15 04:43:50;;;;;;;9.35;5.20;;;;;;;4.50;78.83;100002.00;5034766;27;103288;-71
2023/12/15 04:46:25;;;;;;;10.25;7.25;;;;;;;4.57;78.53;100009.38;5027621;27;104421;-71
2023/12/15 04:48:55;;;;;;;9.32;6.03;;;;;;;4.54;78.32;100006.09;5041257;27;103709;-71
2023/12/15 04:51:24;;;;;;;7.63;5.00;;;;;;;4.56;78.39;100012.09;5023751;27;103879;-70
2023/12/15 04:53:52;;;;;;;9.60;5.80;;;;;;;4.59;78.60;100012.75;5020113;27;105249;-61
2023/12/15 04:56:22;;;;;;;6.68;4.20;;;;;;;4.61;78.24;100015.25;5029644;27;103287;-68
2023/12/15 04:58:51;;;;;;;8.82;5.20;;;;;;;4.63;78.49;100010.78;5010111;27;102794;-68
2023/12/15 05:01:19;;;;;;;7.82;4.53;;;;;;;4.63;78.00;100016.03;5036888;27;103952;-68
2023/12/15 05:03:47;;;;;;;8.90;5.32;;;;;;;4.62;77.91;100016.94;5022679;27;104094;-68
2023/12/15 05:06:18;;;;;;;8.40;5.70;;;;;;;4.60;78.27;100010.97;5033529;27;103177;-68
2023/12/15 05:08:47;;;;;;;8.30;5.28;;;;;;;4.60;78.36;100014.44;5015387;27;102694;-68
2023/12/15 05:11:16;;;;;;;7.40;4.53;;;;;;;4.61;78.16;100016.13;5015376;27;102938;-68
2023/12/15 05:13:45;;;;;;;10.68;5.88;;;;;;;4.56;78.10;100023.44;5033800;27;104376;-68
2023/12/15 05:16:15;;;;;;;7.22;4.90;;;;;;;4.56;78.35;100027.81;5035959;27;102929;-69
2023/12/15 05:18:43;;;;;;;9.48;4.63;;;;;;;4.55;77.90;100036.66;5040347;27;103141;-69
2023/12/15 05:21:11;;;;;;;6.78;4.20;;;;;;;4.56;77.98;100039.19;5036179;27;104339;-70
2023/12/15 05:23:40;;;;;;;9.65;6.25;;;;;;;4.53;77.52;100034.09;5038171;27;104276;-68
2023/12/15 05:26:08;;;;;;;7.55;4.60;;;;;;;4.52;77.96;100042.94;5038098;27;103186;-71
2023/12/15 05:28:36;;;;;;;6.95;4.53;;;;;;;4.58;78.35;100052.19;5034618;27;102715;-69
2023/12/15 05:31:07;;;;;;;7.22;4.35;;;;;;;4.56;77.59;100052.31;5036936;27;104070;-69
2023/12/15 05:33:35;;;;;;;6.47;3.88;;;;;;;4.58;77.92;100062.69;5038657;27;104383;-69
2023/12/15 05:36:04;;;;;;;7.28;5.10;;;;;;;4.60;77.34;100064.28;5032573;27;103133;-68
2023/12/15 05:38:32;;;;;;;6.38;4.47;;;;;;;4.62;77.45;100079.94;5036273;27;103028;-68
2023/12/15 05:41:01;;;;;;;8.20;5.28;;;;;;;4.62;77.13;100079.94;5021076;27;102736;-68
2023/12/15 05:43:29;;;;;;;6.72;4.05;;;;;;;4.56;77.29;100088.19;5012585;27;103888;-68
2023/12/15 05:45:57;;;;;;;8.02;5.18;;;;;;;4.63;77.42;100092.13;5015043;27;104285;-69
2023/12/15 05:48:27;;;;;;;7.20;4.30;;;;;;;4.66;77.69;100102.41;5003786;27;103030;-68
2023/12/15 05:50:55;;;;;;;8.45;5.55;;;;;;;4.69;77.23;100099.63;5025792;27;104419;-68
2023/12/15 05:53:23;;;;;;;7.80;4.45;;;;;;;4.66;77.90;100112.91;5034760;27;103246;-69
2023/12/15 05:55:52;;;;;;;7.68;4.68;;;;;;;4.69;77.97;100107.50;5012508;27;104416;-68
2023/12/15 05:58:20;;;;;;;7.35;5.13;;;;;;;4.73;77.72;100108.97;5015797;27;102705;-69
2023/12/15 06:00:49;;;;;;;7.20;4.50;;;;;;;4.65;77.86;100116.47;5013460;27;104063;-69
2023/12/15 06:03:18;;;;;;;8.82;5.18;;;;;;;4.58;77.63;100120.44;5016275;27;104689;-68
2023/12/15 06:05:48;;;;;;;8.40;5.32;;;;;;;4.61;78.23;100122.84;5039891;27;103172;-69
2023/12/15 06:08:16;;;;;;;7.35;5.05;;;;;;;4.60;78.39;100129.06;5017660;27;102738;-69
2023/12/15 06:10:44;;;;;;;8.75;5.13;;;;;;;4.51;78.51;100129.59;5019441;27;102804;-68
2023/12/15 06:13:15;;;;;;;6.97;4.40;;;;;;;4.58;78.57;100138.78;5033659;27;103910;-69
2023/12/15 06:15:43;;;;;;;7.82;4.60;;;;;;;4.55;78.33;100141.63;5034608;27;104330;-69
2023/12/15 06:18:13;;;;;;;8.85;6.45;;;;;;;4.64;78.75;100143.69;5015566;27;102690;-68
2023/12/15 06:20:42;;;;;;;8.38;5.30;;;;;;;4.66;78.70;100141.78;5028219;27;104022;-68
2023/12/15 06:23:11;;;;;;;7.07;4.80;;;;;;;4.69;78.81;100154.75;5015642;27;102983;-69
2023/12/15 06:25:42;;;;;;;6.82;4.60;;;;;;;4.68;78.63;100158.28;5038215;27;103209;-68
2023/12/15 06:28:10;;;;;;;8.82;5.68;;;;;;;4.70;78.36;100156.41;5018612;27;102953;-69
2023/12/15 06:30:38;;;;;;;10.32;6.47;;;;;;;4.76;78.20;100155.19;5014888;27;102835;-69
2023/12/15 06:33:07;;;;;;;9.07;5.20;;;;;;;4.76;78.50;100150.78;5018316;27;102892;-68
2023/12/15 06:35:35;;;;;;;10.52;6.90;;;;;;;4.78;77.54;100154.16;5022822;27;103274;-69
2023/12/15 06:38:05;;;;;;;8.77;5.93;;;;;;;4.73;77.91;100156.22;5036520;27;102636;-68
2023/12/15 06:40:35;;;;;;;14.68;6.65;;;;;;;4.77;78.03;100160.34;5030526;27;102986;-69
2023/12/15 06:43:03;;;;;;;8.18;5.30;;;;;;;4.75;77.84;100177.13;5032105;27;103945;-69
2023/12/15 06:45:31;;;;;;;8.63;5.88;;;;;;;4.80;78.11;100175.91;5035111;27;102723;-69
2023/12/15 06:47:59;;;;;;;9.55;5.18;;;;;;;4.82;78.29;100173.16;5014562;27;103117;-69
2023/12/15 06:50:28;;;;;;;9.70;6.35;;;;;;;4.85;77.85;100172.13;5036877;27;103192;-69
2023/12/15 06:52:56;;;;;;;7.68;5.55;;;;;;;4.84;77.94;100178.34;5035582;27;103278;-69
2023/12/15 06:55:24;;;;;;;8.82;5.72;;;;;;;4.83;78.15;100193.25;5028846;27;103234;-69
2023/12/15 06:57:53;;;;;;;8.95;6.30;;;;;;;4.83;78.28;100193.25;5033229;27;102622;-69
2023/12/15 07:00:22;;;;;;;11.45;8.23;;;;;;;4.85;77.98;100191.38;5036757;27;104231;-69
2023/12/15 07:02:50;;;;;;;8.80;6.07;;;;;;;4.84;78.56;100194.09;5024152;27;104310;-70
2023/12/15 07:05:17;;;;;;;8.10;5.55;;;;;;;4.86;78.71;100202.72;5040989;27;103225;-69
2023/12/15 07:07:45;;;;;;;8.73;6.55;;;;;;;4.90;78.54;100206.81;5016684;27;102689;-69
2023/12/15 07:10:13;;;;;;;10.73;7.30;;;;;;;4.88;78.32;100208.72;5033304;27;104539;-69
2023/12/15 07:12:41;;;;;;;10.07;7.00;;;;;;;4.80;78.31;100215.28;5026147;27;103329;-69
2023/12/15 07:15:13;;;;;;;9.15;6.35;;;;;;;4.90;78.08;100209.44;5010590;27;103212;-69
2023/12/15 07:17:41;;;;;;;10.85;7.68;;;;;;;4.86;77.95;100214.06;5010956;27;103167;-69
2023/12/15 07:20:11;;;;;;;10.07;6.18;;;;;;;4.78;78.24;100217.16;5016367;27;104039;-69
2023/12/15 07:22:39;;;;;;;10.77;6.78;;;;;;;4.84;78.14;100220.34;5014708;27;104112;-69
2023/12/15 07:25:07;;;;;;;9.27;5.78;;;;;;;4.87;78.04;100230.66;5032964;27;103342;-69
2023/12/15 07:27:35;;;;;;;9.05;6.28;;;;;;;4.83;78.35;100230.00;5038583;27;102593;-68
2023/12/15 07:30:04;;;;;;;8.93;6.28;;;;;;;4.80;77.82;100238.91;5046337;27;102696;-69
2023/12/15 07:32:33;;;;;;;8.48;5.78;;;;;;;4.82;77.55;100244.91;5040330;27;104188;-69
2023/12/15 07:35:03;;;;;;;10.48;6.13;;;;;;;4.87;78.02;100246.41;5033475;27;103192;-72
2023/12/15 07:37:37;;;;;;;11.07;7.78;;;;;;;4.75;77.65;100243.59;5005069;27;102878;-72
2023/12/15 07:40:07;;;;;;;12.48;8.43;;;;;;;4.81;77.88;100248.47;5037807;27;104245;-69
2023/12/15 07:42:37;;;;;;;9.90;6.78;;;;;;;4.81;78.06;100253.72;5020752;27;104509;-72
2023/12/15 07:45:07;;;;;;;10.10;6.88;;;;;;;4.86;77.96;100249.97;5037877;27;103203;-69
2023/12/15 07:47:36;;;;;;;8.48;6.05;;;;;;;4.89;77.97;100261.13;5039291;27;102882;-69
2023/12/15 07:50:05;;;;;;;9.07;6.03;;;;;;;4.92;77.97;100262.72;5021930;27;103591;-69
2023/12/15 07:52:34;;;;;;;10.27;7.47;;;;;;;4.97;77.68;100258.03;5019847;27;104218;-69
2023/12/15 07:55:02;;;;;;;12.85;7.47;;;;;;;4.93;78.14;100251.28;5042288;27;103704;-68
2023/12/15 07:57:29;;;;;;;8.48;5.82;;;;;;;4.95;77.97;100246.78;5040207;27;102609;-68
2023/12/15 07:59:57;;;;;;;9.48;6.68;;;;;;;5.00;77.79;100263.09;5047014;27;104302;-68
2023/12/15 08:02:25;;;;;;;11.60;8.05;;;;;;;4.95;78.46;100265.16;5032531;27;104201;-68
2023/12/15 08:04:57;;;;;;;14.65;8.07;;;;;;;4.98;78.14;100271.06;5041779;27;104819;-69
2023/12/15 08:07:25;;;;;;;9.75;6.97;;;;;;;4.96;78.70;100269.47;5002092;27;102659;-69
2023/12/15 08:09:53;;;;;;;13.68;8.63;;;;;;;5.01;78.68;100270.03;5040469;27;104323;-69
2023/12/15 08:12:21;;;;;;;9.88;6.65;;;;;;;5.02;78.58;100269.13;5020856;27;104443;-68
2023/12/15 08:14:49;;;;;;;14.63;7.50;;;;;;;5.05;78.80;100279.41;5018077;27;104136;-69
2023/12/15 08:17:17;;;;;;;8.60;6.03;;;;;;;5.04;78.84;100280.34;5027901;27;102669;-68
2023/12/15 08:19:45;;;;;;;9.63;6.10;;;;;;;5.07;79.03;100279.31;5036010;27;103956;-68
2023/12/15 08:22:14;;;;;;;9.57;6.35;;;;;;;5.09;78.74;100287.97;5046380;27;104275;-68
2023/12/15 08:24:43;;;;;;;11.35;7.90;;;;;;;5.11;78.75;100292.19;5043027;27;103263;-68
2023/12/15 08:27:12;;;;;;;12.38;7.18;;;;;;;5.12;78.32;100293.00;5008005;27;103190;-68
2023/12/15 08:29:43;;;;;;;9.18;5.72;;;;;;;5.11;78.08;100292.19;5038262;27;104250;-68
2023/12/15 08:32:11;;;;;;;11.93;7.13;;;;;;;5.16;78.68;100307.66;5002920;27;104322;-68
2023/12/15 08:34:40;;;;;;;8.30;5.97;;;;;;;5.18;78.09;100299.69;5032386;27;103213;-68
2023/12/15 08:37:10;;;;;;;12.88;6.68;;;;;;;5.23;78.31;100305.50;5036089;27;102634;-68
2023/12/15 08:39:41;;;;;;;9.35;5.45;;;;;;;5.24;77.76;100315.06;5019979;27;103645;-68
2023/12/15 08:42:09;;;;;;;9.48;6.15;;;;;;;5.29;78.16;100313.00;5037381;27;104027;-68
2023/12/15 08:44:38;;;;;;;14.07;5.82;;;;;;;5.30;77.85;100317.31;5017241;27;103247;-68
2023/12/15 08:47:06;;;;;;;11.30;6.68;;;;;;;5.34;78.10;100324.06;5016762;27;102715;-68
2023/12/15 08:49:34;;;;;;;18.10;7.53;;;;;;;5.38;77.76;100338.69;5019405;27;103413;-68
2023/12/15 08:52:05;;;;;;;10.70;6.15;;;;;;;5.40;77.91;100336.84;5034973;27;103278;-68
2023/12/15 08:54:33;;;;;;;7.68;5.47;;;;;;;5.41;77.59;100335.03;5020724;27;103520;-68
2023/12/15 08:57:02;;;;;;;9.75;5.45;;;;;;;5.49;77.82;100340.69;5034070;27;103075;-68
2023/12/15 08:59:31;;;;;;;13.45;7.70;;;;;;;5.48;76.96;100349.50;5038172;27;102772;-68
2023/12/15 09:01:59;;;;;;;7.55;5.32;;;;;;;5.50;77.35;100349.41;5019991;27;103298;-68
2023/12/15 09:04:27;;;;;;;8.10;5.60;;;;;;;5.55;77.35;100356.06;5039651;27;103256;-68
2023/12/15 09:06:55;;;;;;;7.40;5.35;;;;;;;5.58;76.97;100352.41;5035649;27;103137;-68
2023/12/15 09:09:24;;;;;;;8.57;5.88;;;;;;;5.59;77.33;100343.56;5035017;27;104164;-70
2023/12/15 09:11:52;;;;;;;7.78;5.28;;;;;;;5.59;76.93;100343.56;5036268;27;104131;-71
2023/12/15 09:14:23;;;;;;;9.88;6.70;;;;;;;5.49;76.69;100353.81;5035362;27;103200;-71
2023/12/15 09:16:51;;;;;;;9.25;6.50;;;;;;;5.53;76.88;100338.69;5034725;27;102702;-72
2023/12/15 09:19:19;;;;;;;8.85;6.30;;;;;;;5.55;76.74;100358.69;5016651;27;103091;-71
2023/12/15 09:21:48;;;;;;;10.90;5.72;;;;;;;5.63;76.91;100361.69;5017664;27;104395;-68
2023/12/15 09:24:17;;;;;;;7.07;6.00;;;;;;;5.65;76.55;100359.81;5037999;27;103283;-71
2023/12/15 09:26:46;;;;;;;8.02;5.28;;;;;;;5.72;76.73;100373.41;5039329;27;102690;-72
2023/12/15 09:29:18;;;;;;;8.43;5.43;;;;;;;5.73;76.31;100367.22;5019159;27;104234;-72
2023/12/15 09:31:48;;;;;;;10.18;6.47;;;;;;;5.77;76.10;100373.97;5036281;27;103766;-72
2023/12/15 09:34:19;;;;;;;9.55;6.65;;;;;;;5.75;76.66;100370.59;5021130;27;104064;-72
2023/12/15 09:36:48;;;;;;;9.10;5.57;;;;;;;5.73;76.64;100367.22;5025587;27;102701;-72
2023/12/15 09:39:16;;;;;;;14.27;7.38;;;;;;;5.77;75.83;100368.72;5015821;27;102983;-74
2023/12/15 09:41:44;;;;;;;11.30;7.10;;;;;;;5.79;76.30;100366.84;5021765;27;104118;-72
2023/12/15 09:44:15;;;;;;;9.85;6.80;;;;;;;5.79;76.80;100372.09;5031108;27;103183;-71
2023/12/15 09:46:44;;;;;;;8.73;5.97;;;;;;;5.81;76.53;100369.38;5044596;27;102729;-72
2023/12/15 09:49:16;;;;;;;7.47;5.20;;;;;;;5.86;76.48;100374.34;5031858;27;103018;-72
2023/12/15 09:51:48;;;;;;;8.97;5.77;;;;;;;5.93;76.28;100367.75;5016174;27;104537;-72
2023/12/15 09:54:17;;;;;;;8.23;6.20;;;;;;;5.92;75.88;100373.94;5018268;27;103272;-72
2023/12/15 09:56:46;;;;;;;14.02;7.63;;;;;;;6.00;75.97;100363.84;5017160;27;102998;-72
2023/12/15 09:59:14;;;;;;;7.32;5.38;;;;;;;6.08;76.04;100364.19;5018370;27;103004;-72
2023/12/15 10:01:42;;;;;;;9.52;5.65;;;;;;;6.25;75.96;100362.22;5036510;27;103970;-72
2023/12/15 10:04:13;;;;;;;9.10;5.97;;;;;;;6.30;75.06;100370.66;5013264;27;104181;-72
2023/12/15 10:06:42;;;;;;;7.72;5.18;;;;;;;6.47;75.42;100378.34;5035067;27;102808;-72
2023/12/15 10:09:13;;;;;;;9.73;6.28;;;;;;;6.55;74.72;100384.88;5025562;27;102719;-73
2023/12/15 10:11:44;;;;;;;10.02;6.70;;;;;;;6.64;74.59;100386.88;5010234;27;104605;-72
2023/12/15 10:14:14;;;;;;;10.15;6.72;;;;;;;6.61;73.48;100381.84;5034268;27;103241;-71
2023/12/15 10:16:42;;;;;;;8.48;6.18;;;;;;;6.62;74.64;100386.16;5035435;27;102777;-72
2023/12/15 10:19:10;;;;;;;8.02;5.43;;;;;;;6.75;74.00;100380.94;5014430;27;103365;-72
2023/12/15 10:21:40;;;;;;;8.90;5.78;;;;;;;6.79;73.81;100393.78;5017351;27;104245;-72
2023/12/15 10:24:23;;;;;;;8.25;5.93;;;;;;;6.89;73.43;100393.16;5021108;27;103406;-72
2023/12/15 10:26:51;;;;;;;8.68;4.97;;;;;;;6.91;73.35;100391.28;5011742;27;102710;-72
2023/12/15 10:29:20;;;;;;;8.98;6.00;;;;;;;6.96;73.66;100391.81;5015112;27;103601;-73
2023/12/15 10:31:50;;;;;;;10.38;7.13;;;;;;;6.78;73.61;100402.63;5019646;27;104296;-72
2023/12/15 10:34:18;;;;;;;9.10;5.55;;;;;;;7.01;73.94;100395.00;5012003;27;104147;-72
2023/12/15 10:36:48;;;;;;;8.27;5.68;;;;;;;7.14;73.39;100398.47;5018869;27;102590;-72
2023/12/15 10:39:17;;;;;;;10.50;7.22;;;;;;;7.19;73.03;100394.69;5038549;27;103262;-73
2023/12/15 10:41:45;;;;;;;10.48;6.82;;;;;;;7.22;72.27;100395.31;5011570;27;103920;-72
2023/12/15 10:44:14;;;;;;;9.05;5.63;;;;;;;7.30;72.45;100394.81;5036962;27;103299;-72
2023/12/15 10:46:47;;;;;;;8.82;6.28;;;;;;;7.10;72.14;100397.00;5017807;27;102791;-72
2023/12/15 10:49:16;;;;;;;8.15;6.32;;;;;;;7.27;72.32;100397.63;5031305;27;102745;-71
2023/12/15 10:51:44;;;;;;;9.13;6.43;;;;;;;7.24;72.94;100403.94;5015535;27;104071;-72
2023/12/15 10:54:17;;;;;;;10.05;7.10;;;;;;;7.29;71.97;100403.66;5033547;27;103234;-72
2023/12/15 10:56:47;;;;;;;7.83;5.67;;;;;;;7.23;72.66;100396.16;5013336;27;102864;-73
2023/12/15 10:59:15;;;;;;;7.55;5.30;;;;;;;7.23;71.98;100393.53;5028180;27;103985;-73
2023/12/15 11:01:46;;;;;;;9.07;5.82;;;;;;;7.28;72.66;100394.06;5010962;27;103285;-72
2023/12/15 11:04:19;;;;;;;7.45;5.32;;;;;;;7.32;71.70;100394.69;5017539;27;104013;-72
2023/12/15 11:06:48;;;;;;;8.30;5.70;;;;;;;7.34;71.54;100398.06;5036389;27;102770;-73
2023/12/15 11:09:29;;;;;;;6.90;4.85;;;;;;;7.07;70.18;100397.19;5014948;27;102879;-73
2023/12/15 11:12:23;;;;;;;7.38;4.97;;;;;;;7.34;71.06;100404.19;5017193;27;104590;-72
2023/12/15 11:14:53;;;;;;;10.32;4.75;;;;;;;7.37;69.87;100401.31;5021740;27;103501;-73
2023/12/15 11:17:21;;;;;;;6.72;4.70;;;;;;;7.52;71.24;100409.13;5031135;27;103672;-73
2023/12/15 11:19:52;;;;;;;8.75;4.93;;;;;;;7.35;70.02;100400.59;5035770;27;104286;-68
2023/12/15 11:22:21;;;;;;;5.28;3.65;;;;;;;7.34;71.65;100419.16;5026032;27;102985;-72
2023/12/15 11:24:51;;;;;;;7.22;4.35;;;;;;;7.17;70.56;100422.94;5036129;27;103182;-71
2023/12/15 11:27:19;;;;;;;7.15;4.68;;;;;;;7.37;70.48;100424.22;5033867;27;102788;-68
2023/12/15 11:29:47;;;;;;;8.57;4.88;;;;;;;7.34;70.40;100421.81;5013563;27;102746;-72
2023/12/15 11:32:28;;;;;;;7.30;4.18;;;;;;;7.33;70.19;100426.22;5032882;27;103266;-72
2023/12/15 11:34:57;;;;;;;6.55;4.18;;;;;;;7.36;70.87;100426.00;5012830;27;104338;-69